CYRB

Resolute

Airport
ICAO code
CYRB
Summary
ICAO Region
NAM
ICAO Territory
Location

Resolute, Nunavut,

Coordinates
74° 43' 1" N , 94° 58' 10" W
KCC
Airport BS
Non Avian Wildlife Hazards to Aircraft
Airport CFIT
Altimeter Temperature Error Correction
Airport GND
Aircraft Ground De/Anti Icing
Airport WX
Fog
Metar
Observation
CYRB 241400Z 05010KT 25SM FEW032 M07/M11 A2945 RMK SC1 SC TR SLP983
Station
Resolute, N. W. T.
Date/Time
2022-09-24 14:00:00
Wind direction
50°
Wind speed
10 kts
Lowest cloud amount
few clouds
Temperature
-7°C
Dew point
-11°C
Humidity
73%
Weather condition
n/a

Description

Airport serving Resolute, Nunavut.

Climatology

Tundra climate (Köppen climate classification ET) - warmest month has an average temperature of 0 - 10 degrees C.

Runways

Designator Length Width Surface Rops
17T/35T 1981 61 GVL No/No

Airport map

Aerial View

SKYbrary Partners:

Safety knowledge contributed by: